Accueil
METAR-TAF:

METAR-TAF

Aéroports :

Aéroport de Montpellier-Méditerranée

Montpellier, France

latitude: 43-35N, longitude: 003-58E, altitude: 5 m

Observation

Le bulletin a été fait il y a 24 minutes, à 15:30 UTC
Vent 4 kt de nord
Température 5°C
Humidité 81%
Pression 1020 hPa
Visibilité 10 km ou plus
pluie faible

METAR: LFMT 151530Z AUTO 01004KT 9999 -RA NSC 05/02 Q1020 NOSIG

Heure: 16:54 (15:54 UTC)

Prévision

Le bulletin a été fait il y a 1 heure et 54 minutes, à 14:00 UTC
Prévision valable du 15 à 15 UTC au 16 à 15 UTC
Vent 3 kt de direction variable
Visibilité 10 km ou plus
pas de nuages en-dessous de 1500 mètres et pas de cumulonimbus.
Evoluant progressivement
du 15 à 15 UTC au 15 à 17 UTC
Nuages fragmentés à une hauteur de 2000 ft
Temporairement
du 15 à 18 UTC au 16 à 15 UTC
Ciel couvert à une hauteur de 1000 ft
pluie

TAF: LFMT 151400Z 1515/1615 VRB03KT CAVOK BECMG 1515/1517 BKN020 TEMPO 1518/1615 RA OVC010

Observations et prévisions météorologiques de plus de 4000 aéroports (messages METAR et TAF).

Les stations disponibles sont représentées par des disques jaunes et rouges sur la carte.

Passer la souris dessus pour voir le nom de la station.

Cliquer dessus pour voir les observations et prévisions météorologiques.

Pour changer de carte: cliquez sur les boutons verts avec une croix noire pour zoomer, sur le bouton vert avec un tiret pour effectuer un zoom arrière, ou sur les flèches vertes pour les cartes adjacentes.


METAR-TAF: